createdAt,value
2017-12-24T00:01:47.266Z,99137.77
2017-12-24T00:04:15.582Z,99129.52
2017-12-24T00:06:43.947Z,99124.27
2017-12-24T00:09:12.276Z,99139.18
2017-12-24T00:11:40.617Z,99138.17
2017-12-24T00:14:08.949Z,99127.90
2017-12-24T00:16:37.271Z,99122.86
2017-12-24T00:19:05.582Z,99128.31
2017-12-24T00:21:33.907Z,99124.80
2017-12-24T00:24:02.230Z,99122.19
2017-12-24T00:26:30.544Z,99108.13
2017-12-24T00:28:58.871Z,99111.23
2017-12-24T00:31:27.202Z,99108.50
2017-12-24T00:33:55.526Z,99103.48
2017-12-24T00:36:23.851Z,99120.56
2017-12-24T00:38:52.181Z,99117.09
2017-12-24T00:41:20.511Z,99105.89
2017-12-24T00:43:48.867Z,99108.07
2017-12-24T00:46:17.186Z,99112.77
2017-12-24T00:48:45.515Z,99118.67
2017-12-24T00:51:13.826Z,99108.22
2017-12-24T00:53:42.154Z,99118.66
2017-12-24T00:56:11.238Z,99117.24
2017-12-24T00:58:39.568Z,99124.48
2017-12-24T01:01:07.902Z,99120.07
2017-12-24T01:03:36.234Z,99112.41
2017-12-24T01:06:04.588Z,99106.57
2017-12-24T01:08:32.907Z,99114.77
2017-12-24T01:11:01.235Z,99115.37
2017-12-24T01:13:29.562Z,99119.94
2017-12-24T01:15:57.908Z,99105.38
2017-12-24T01:18:26.228Z,99112.90
2017-12-24T01:20:54.551Z,99108.86
2017-12-24T01:23:22.875Z,99107.36
2017-12-24T01:25:51.215Z,99109.34
2017-12-24T01:28:19.540Z,99110.52
2017-12-24T01:30:47.876Z,99108.98
2017-12-24T01:33:17.175Z,99106.23
2017-12-24T01:35:45.496Z,99101.83
2017-12-24T01:38:13.823Z,99099.42
2017-12-24T01:40:42.144Z,99107.08
2017-12-24T01:43:10.489Z,99101.85
2017-12-24T01:45:38.799Z,99105.02
2017-12-24T01:48:07.144Z,99108.13
2017-12-24T01:50:35.474Z,99108.49
2017-12-24T01:53:04.583Z,99115.02
2017-12-24T01:55:32.920Z,99104.83
2017-12-24T01:58:01.265Z,99105.80
2017-12-24T02:00:29.592Z,99105.57
2017-12-24T02:02:57.921Z,99104.19
2017-12-24T02:05:26.240Z,99096.16
2017-12-24T02:07:54.585Z,99086.29
2017-12-24T02:10:22.898Z,99080.69
2017-12-24T02:12:51.226Z,99088.51
2017-12-24T02:15:19.557Z,99083.69
2017-12-24T02:17:47.893Z,99090.02
2017-12-24T02:20:16.233Z,99091.05
2017-12-24T02:22:45.341Z,99088.36
2017-12-24T02:25:13.654Z,99088.27
2017-12-24T02:27:41.983Z,99076.45
2017-12-24T02:30:11.072Z,99081.66
2017-12-24T02:32:39.400Z,99086.85
2017-12-24T02:35:07.739Z,99083.73
2017-12-24T02:37:36.868Z,99089.51
2017-12-24T02:40:05.210Z,99087.05
2017-12-24T02:42:33.531Z,99083.31
2017-12-24T02:45:01.852Z,99091.12
2017-12-24T02:47:30.969Z,99080.56
2017-12-24T02:49:59.328Z,99077.66
2017-12-24T02:52:27.675Z,99066.62
2017-12-24T02:54:55.994Z,99071.30
2017-12-24T02:57:25.090Z,99065.66
2017-12-24T02:59:54.199Z,99070.77
2017-12-24T03:02:23.415Z,99069.75
2017-12-24T03:04:51.739Z,99075.02
2017-12-24T03:07:20.085Z,99076.80
2017-12-24T03:09:48.426Z,99069.50
2017-12-24T03:12:16.801Z,99072.66
2017-12-24T03:14:45.126Z,99062.17
2017-12-24T03:17:13.459Z,99072.07
2017-12-24T03:19:41.792Z,99068.38
2017-12-24T03:22:10.130Z,99067.61
2017-12-24T03:24:38.453Z,99061.93
2017-12-24T03:27:06.779Z,99058.34
2017-12-24T03:29:35.132Z,99062.84
2017-12-24T03:32:04.246Z,99059.59
2017-12-24T03:34:32.579Z,99055.50
2017-12-24T03:37:00.922Z,99054.52
2017-12-24T03:39:29.239Z,99048.54
2017-12-24T03:41:57.578Z,99060.81
2017-12-24T03:44:25.901Z,99048.97
2017-12-24T03:46:54.242Z,99051.60
2017-12-24T03:49:22.570Z,99051.17
2017-12-24T03:51:50.898Z,99046.36
2017-12-24T03:54:19.236Z,99041.66
2017-12-24T03:56:48.632Z,99048.84
2017-12-24T03:59:16.964Z,99053.23
2017-12-24T04:01:45.278Z,99047.14
2017-12-24T04:04:14.377Z,99053.09
2017-12-24T04:06:43.647Z,99049.88
2017-12-24T04:09:11.965Z,99046.13
2017-12-24T04:11:40.278Z,99050.61
2017-12-24T04:14:08.610Z,99051.53
2017-12-24T04:16:36.946Z,99057.75
2017-12-24T04:19:05.284Z,99060.83
2017-12-24T04:21:33.606Z,99058.86
2017-12-24T04:24:01.932Z,99053.94
2017-12-24T04:26:30.270Z,99059.33
2017-12-24T04:28:58.624Z,99058.05
2017-12-24T04:31:26.948Z,99063.94
2017-12-24T04:33:55.270Z,99059.70
2017-12-24T04:36:23.603Z,99046.85
2017-12-24T04:38:51.940Z,99057.23
2017-12-24T04:41:20.282Z,99052.03
2017-12-24T04:43:48.632Z,99051.09
2017-12-24T04:46:17.744Z,99041.61
2017-12-24T04:48:46.056Z,99048.12
2017-12-24T04:51:14.386Z,99044.72
2017-12-24T04:53:43.482Z,99049.54
2017-12-24T04:56:11.811Z,99043.73
2017-12-24T04:58:40.950Z,99048.46
2017-12-24T05:01:09.293Z,99045.92
2017-12-24T05:03:37.639Z,99048.06
2017-12-24T05:06:05.967Z,99042.50
2017-12-24T05:08:34.301Z,99048.05
2017-12-24T05:11:03.392Z,99050.23
2017-12-24T05:13:31.732Z,99040.97
2017-12-24T05:16:00.102Z,99031.81
2017-12-24T05:18:28.444Z,99032.62
2017-12-24T05:20:56.770Z,99022.99
2017-12-24T05:23:25.873Z,99023.78
2017-12-24T05:25:54.966Z,99013.98
2017-12-24T05:28:23.307Z,99019.73
2017-12-24T05:30:51.634Z,99015.11
2017-12-24T05:33:19.970Z,99007.04
2017-12-24T05:35:48.337Z,99013.72
2017-12-24T05:38:16.663Z,99001.14
2017-12-24T05:40:44.980Z,99002.29
2017-12-24T05:43:13.302Z,98999.80
2017-12-24T05:45:41.627Z,99002.47
2017-12-24T05:48:09.968Z,99008.11
2017-12-24T05:50:38.287Z,99010.95
2017-12-24T05:53:06.603Z,99011.70
2017-12-24T05:55:34.937Z,99010.29
2017-12-24T05:58:03.277Z,99018.37
2017-12-24T06:00:31.609Z,99012.50
2017-12-24T06:02:59.931Z,99009.52
2017-12-24T06:05:28.252Z,99000.79
2017-12-24T06:07:56.592Z,99008.02
2017-12-24T06:10:24.951Z,99002.22
2017-12-24T06:12:54.040Z,98996.19
2017-12-24T06:15:22.349Z,99001.84
2017-12-24T06:17:50.665Z,98999.64
2017-12-24T06:20:18.995Z,98998.88
2017-12-24T06:22:47.310Z,98998.20
2017-12-24T06:25:15.635Z,98998.67
2017-12-24T06:27:43.941Z,98994.63
2017-12-24T06:30:12.267Z,98995.87
2017-12-24T06:32:40.610Z,98995.20
2017-12-24T06:35:08.945Z,98995.45
2017-12-24T06:37:37.275Z,98995.27
2017-12-24T06:40:05.595Z,98996.73
2017-12-24T06:42:33.915Z,98984.14
2017-12-24T06:45:02.253Z,98991.62
2017-12-24T06:47:31.362Z,98982.86
2017-12-24T06:49:59.697Z,98985.42
2017-12-24T06:52:28.050Z,98987.63
2017-12-24T06:54:56.370Z,98984.70
2017-12-24T06:57:24.695Z,98977.33
2017-12-24T06:59:53.633Z,98983.97
2017-12-24T07:02:21.974Z,98983.91
2017-12-24T07:04:50.294Z,98986.81
2017-12-24T07:07:18.637Z,98985.38
2017-12-24T07:09:47.000Z,98974.09
2017-12-24T07:12:15.318Z,98978.92
2017-12-24T07:14:43.656Z,98978.80
2017-12-24T07:17:11.986Z,98974.41
2017-12-24T07:19:40.332Z,98970.36
2017-12-24T07:22:08.682Z,98969.67
2017-12-24T07:24:37.029Z,98964.34
2017-12-24T07:27:05.364Z,98964.15
2017-12-24T07:29:33.704Z,98964.34
2017-12-24T07:32:02.031Z,98962.08
2017-12-24T07:34:30.372Z,98961.89
2017-12-24T07:36:58.702Z,98967.16
2017-12-24T07:39:27.036Z,98960.32
2017-12-24T07:41:55.730Z,98970.55
2017-12-24T07:44:24.051Z,98959.59
2017-12-24T07:46:52.385Z,98965.69
2017-12-24T07:49:20.730Z,98961.55
2017-12-24T07:51:49.061Z,98970.53
2017-12-24T07:54:17.401Z,98967.69
2017-12-24T07:56:45.715Z,98969.58
2017-12-24T07:59:14.030Z,98973.66
2017-12-24T08:01:42.355Z,98975.78
2017-12-24T08:04:10.693Z,98967.28
2017-12-24T08:06:39.015Z,98974.50
2017-12-24T08:09:07.359Z,98968.30
2017-12-24T08:11:35.689Z,98963.50
2017-12-24T08:14:04.007Z,98965.73
2017-12-24T08:16:32.344Z,98959.41
2017-12-24T08:19:00.703Z,98967.81
2017-12-24T08:21:29.035Z,98971.22
2017-12-24T08:23:57.355Z,98969.38
2017-12-24T08:26:25.693Z,98977.49
2017-12-24T08:28:55.006Z,98971.59
2017-12-24T08:31:23.336Z,98965.31
2017-12-24T08:33:51.666Z,98969.77
2017-12-24T08:36:19.987Z,98967.44
2017-12-24T08:38:48.304Z,98965.63
2017-12-24T08:41:16.626Z,98965.49
2017-12-24T08:43:44.971Z,98975.17
2017-12-24T08:46:13.316Z,98970.98
2017-12-24T08:48:41.638Z,98964.77
2017-12-24T08:51:09.972Z,98966.17
2017-12-24T08:53:38.314Z,98964.89
2017-12-24T08:56:06.660Z,98970.80
2017-12-24T08:58:35.005Z,98966.96
2017-12-24T09:01:04.099Z,98967.45
2017-12-24T09:03:33.199Z,98966.82
2017-12-24T09:06:01.533Z,98960.31
2017-12-24T09:08:29.957Z,98969.02
2017-12-24T09:10:58.281Z,98969.03
2017-12-24T09:13:26.609Z,98967.31
2017-12-24T09:15:54.952Z,98967.62
2017-12-24T09:18:23.276Z,98961.36
2017-12-24T09:20:51.626Z,98963.63
2017-12-24T09:23:20.742Z,98957.03
2017-12-24T09:25:49.837Z,98952.61
2017-12-24T09:28:18.177Z,98960.44
2017-12-24T09:30:46.513Z,98957.46
2017-12-24T09:33:14.832Z,98952.89
2017-12-24T09:35:43.167Z,98962.58
2017-12-24T09:38:11.521Z,98961.52
2017-12-24T09:40:40.606Z,98958.61
2017-12-24T09:43:08.930Z,98954.66
2017-12-24T09:45:37.258Z,98951.88
2017-12-24T09:48:06.357Z,98951.66
2017-12-24T09:50:34.678Z,98952.03
2017-12-24T09:53:03.050Z,98946.98
2017-12-24T09:55:31.898Z,98945.53
2017-12-24T09:58:00.216Z,98943.48
2017-12-24T10:00:28.539Z,98938.03
2017-12-24T10:02:56.873Z,98926.89
2017-12-24T10:05:25.196Z,98924.86
2017-12-24T10:07:53.538Z,98936.66
2017-12-24T10:10:21.883Z,98920.72
2017-12-24T10:12:50.207Z,98921.14
2017-12-24T10:15:18.519Z,98927.75
2017-12-24T10:17:46.858Z,98927.14
2017-12-24T10:20:15.216Z,98909.36
2017-12-24T10:22:43.561Z,98922.97
2017-12-24T10:25:12.646Z,98917.77
2017-12-24T10:27:41.776Z,98919.98
2017-12-24T10:30:10.114Z,98919.05
2017-12-24T10:32:38.464Z,98913.63
2017-12-24T10:35:06.784Z,98909.56
2017-12-24T10:37:35.885Z,98913.16
2017-12-24T10:40:04.992Z,98905.48
2017-12-24T10:42:33.311Z,98895.77
2017-12-24T10:45:01.644Z,98896.19
2017-12-24T10:47:29.955Z,98907.18
2017-12-24T10:49:58.274Z,98899.37
2017-12-24T10:52:26.621Z,98897.71
2017-12-24T10:54:54.953Z,98894.27
2017-12-24T10:57:23.293Z,98888.86
2017-12-24T10:59:51.635Z,98889.80
2017-12-24T11:02:19.970Z,98891.08
2017-12-24T11:04:55.271Z,98882.61
2017-12-24T11:07:23.608Z,98881.46
2017-12-24T11:09:51.942Z,98870.67
2017-12-24T11:12:20.272Z,98876.02
2017-12-24T11:14:48.607Z,98871.80
2017-12-24T11:17:16.947Z,98869.48
2017-12-24T11:19:45.279Z,98881.94
2017-12-24T11:22:14.385Z,98862.71
2017-12-24T11:24:42.751Z,98865.36
2017-12-24T11:27:11.077Z,98856.99
2017-12-24T11:29:39.408Z,98853.45
2017-12-24T11:32:07.746Z,98842.37
2017-12-24T11:34:36.063Z,98844.28
2017-12-24T11:37:05.161Z,98843.20
2017-12-24T11:39:33.499Z,98841.53
2017-12-24T11:42:01.823Z,98839.03
2017-12-24T11:44:30.208Z,98848.08
2017-12-24T11:46:58.526Z,98833.86
2017-12-24T11:49:26.850Z,98834.39
2017-12-24T11:51:55.162Z,98830.89
2017-12-24T11:54:23.483Z,98828.23
2017-12-24T11:56:52.590Z,98824.41
2017-12-24T11:59:20.929Z,98823.17
2017-12-24T12:01:49.255Z,98824.36
2017-12-24T12:04:17.578Z,98829.33
2017-12-24T12:06:45.903Z,98813.69
2017-12-24T12:09:15.007Z,98811.42
2017-12-24T12:11:43.320Z,98815.73
2017-12-24T12:14:11.669Z,98811.19
2017-12-24T12:16:40.012Z,98804.36
2017-12-24T12:19:08.365Z,98798.88
2017-12-24T12:21:36.692Z,98793.89
2017-12-24T12:24:05.038Z,98786.17
2017-12-24T12:26:33.364Z,98787.36
2017-12-24T12:29:01.691Z,98777.14
2017-12-24T12:31:30.045Z,98779.78
2017-12-24T12:33:58.377Z,98774.23
2017-12-24T12:36:27.472Z,98770.36
2017-12-24T12:38:55.804Z,98768.62
2017-12-24T12:41:24.117Z,98765.25
2017-12-24T12:43:53.214Z,98770.62
2017-12-24T12:46:22.309Z,98767.08
2017-12-24T12:48:50.643Z,98767.20
2017-12-24T12:51:18.996Z,98759.91
2017-12-24T12:53:47.339Z,98754.94
2017-12-24T12:56:16.431Z,98752.42
2017-12-24T12:58:45.519Z,98751.05
2017-12-24T13:01:14.586Z,98735.76
2017-12-24T13:03:42.907Z,98735.20
2017-12-24T13:06:12.008Z,98735.97
2017-12-24T13:08:40.330Z,98739.94
2017-12-24T13:11:09.607Z,98738.69
2017-12-24T13:13:37.940Z,98734.77
2017-12-24T13:16:06.260Z,98734.61
2017-12-24T13:18:35.427Z,98743.26
2017-12-24T13:21:04.515Z,98739.94
2017-12-24T13:23:32.843Z,98730.98
2017-12-24T13:26:01.182Z,98731.67
2017-12-24T13:28:30.281Z,98721.73
2017-12-24T13:30:58.613Z,98731.75
2017-12-24T13:33:26.948Z,98732.48
2017-12-24T13:35:55.307Z,98733.41
2017-12-24T13:38:24.334Z,98736.40
2017-12-24T13:40:52.660Z,98739.12
2017-12-24T13:43:20.996Z,98728.38
2017-12-24T13:45:49.333Z,98737.03
2017-12-24T13:48:18.426Z,98735.29
2017-12-24T13:50:47.510Z,98732.35
2017-12-24T13:53:15.861Z,98738.58
2017-12-24T13:55:44.204Z,98729.19
2017-12-24T13:58:12.542Z,98738.66
2017-12-24T14:00:40.860Z,98733.97
2017-12-24T14:03:09.197Z,98737.84
2017-12-24T14:05:37.516Z,98724.63
2017-12-24T14:08:05.849Z,98732.85
2017-12-24T14:10:34.163Z,98735.80
2017-12-24T14:13:03.199Z,98724.46
2017-12-24T14:15:31.540Z,98714.80
2017-12-24T14:17:59.864Z,98727.58
2017-12-24T14:20:28.202Z,98719.09
2017-12-24T14:22:56.530Z,98719.14
2017-12-24T14:25:24.869Z,98723.86
2017-12-24T14:27:53.192Z,98715.11
2017-12-24T14:30:21.540Z,98717.62
2017-12-24T14:32:49.926Z,98709.06
2017-12-24T14:35:18.262Z,98720.50
2017-12-24T14:37:46.587Z,98715.77
2017-12-24T14:40:14.916Z,98718.02
2017-12-24T14:42:43.250Z,98713.79
2017-12-24T14:45:11.580Z,98710.45
2017-12-24T14:47:39.895Z,98711.30
2017-12-24T14:50:09.075Z,98709.67
2017-12-24T14:52:37.404Z,98654.39
2017-12-24T14:55:05.731Z,98704.66
2017-12-24T14:57:34.055Z,98702.45
2017-12-24T15:00:02.374Z,98702.35
2017-12-24T15:02:30.716Z,98712.30
2017-12-24T15:04:59.054Z,98710.45
2017-12-24T15:07:27.389Z,98704.95
2017-12-24T15:09:55.713Z,98704.45
2017-12-24T15:12:24.049Z,98704.84
2017-12-24T15:14:52.367Z,98700.84
2017-12-24T15:17:20.722Z,98704.95
2017-12-24T15:19:49.042Z,98701.28
2017-12-24T15:22:17.367Z,98709.38
2017-12-24T15:24:45.714Z,98710.65
2017-12-24T15:27:14.046Z,98710.65
2017-12-24T15:29:42.362Z,98713.20
2017-12-24T15:32:10.692Z,98706.77
2017-12-24T15:34:39.025Z,98710.11
2017-12-24T15:37:07.360Z,98711.89
2017-12-24T15:39:35.686Z,98708.17
2017-12-24T15:42:04.025Z,98704.09
2017-12-24T15:44:32.362Z,98707.55
2017-12-24T15:47:00.702Z,98709.12
2017-12-24T15:49:29.027Z,98711.85
2017-12-24T15:51:57.377Z,98705.03
2017-12-24T15:54:26.314Z,98705.93
2017-12-24T15:56:54.648Z,98712.54
2017-12-24T15:59:22.985Z,98713.55
2017-12-24T16:01:51.302Z,98710.58
2017-12-24T16:04:19.646Z,98703.71
2017-12-24T16:06:48.375Z,98710.15
2017-12-24T16:09:16.713Z,98710.14
2017-12-24T16:11:45.035Z,98696.63
2017-12-24T16:14:13.355Z,98692.08
2017-12-24T16:16:43.016Z,98698.88
2017-12-24T16:19:11.352Z,98692.44
2017-12-24T16:21:39.692Z,98695.39
2017-12-24T16:24:08.025Z,98705.92
2017-12-24T16:26:37.138Z,98700.46
2017-12-24T16:29:05.469Z,98691.01
2017-12-24T16:31:33.798Z,98690.63
2017-12-24T16:34:02.112Z,98694.38
2017-12-24T16:36:30.456Z,98690.12
2017-12-24T16:38:58.783Z,98693.83
2017-12-24T16:41:27.133Z,98692.86
2017-12-24T16:43:55.459Z,98697.45
2017-12-24T16:46:24.544Z,98695.75
2017-12-24T16:48:53.884Z,98697.20
2017-12-24T16:51:22.223Z,98707.85
2017-12-24T16:53:51.329Z,98703.47
2017-12-24T16:56:20.425Z,98694.94
2017-12-24T16:58:48.747Z,98700.61
2017-12-24T17:01:17.086Z,98703.75
2017-12-24T17:03:45.430Z,98699.96
2017-12-24T17:06:13.758Z,98698.69
2017-12-24T17:08:42.079Z,98694.13
2017-12-24T17:11:10.414Z,98695.70
2017-12-24T17:13:38.735Z,98696.17
2017-12-24T17:16:07.062Z,98696.84
2017-12-24T17:18:35.416Z,98691.70
2017-12-24T17:21:03.738Z,98689.61
2017-12-24T17:23:32.066Z,98684.41
2017-12-24T17:26:00.410Z,98678.35
2017-12-24T17:28:28.827Z,98679.82
2017-12-24T17:30:57.126Z,98681.95
2017-12-24T17:33:25.983Z,98680.75
2017-12-24T17:35:55.087Z,98681.66
2017-12-24T17:38:23.425Z,98677.95
2017-12-24T17:40:51.744Z,98683.61
2017-12-24T17:43:20.818Z,98683.09
2017-12-24T17:45:49.148Z,98683.14
2017-12-24T17:48:17.484Z,98678.88
2017-12-24T17:50:46.567Z,98684.00
2017-12-24T17:53:14.881Z,98683.56
2017-12-24T17:55:43.212Z,98689.41
2017-12-24T17:58:12.191Z,98684.97
2017-12-24T18:00:40.507Z,98691.16
2017-12-24T18:03:08.836Z,98688.21
2017-12-24T18:05:37.144Z,98684.30
2017-12-24T18:08:05.481Z,98683.53
2017-12-24T18:10:33.824Z,98678.50
2017-12-24T18:13:02.930Z,98680.08
2017-12-24T18:15:31.242Z,98684.76
2017-12-24T18:17:59.567Z,98676.02
2017-12-24T18:20:28.694Z,98678.92
2017-12-24T18:22:57.022Z,98677.09
2017-12-24T18:25:25.354Z,98675.94
2017-12-24T18:27:53.715Z,98677.59
2017-12-24T18:30:22.787Z,98677.98
2017-12-24T18:32:51.126Z,98672.57
2017-12-24T18:35:19.461Z,98670.44
2017-12-24T18:37:47.786Z,98668.58
2017-12-24T18:40:16.475Z,98670.94
2017-12-24T18:42:44.844Z,98670.13
2017-12-24T18:45:13.174Z,98669.34
2017-12-24T18:47:42.259Z,98673.90
2017-12-24T18:50:11.361Z,98675.00
2017-12-24T18:52:40.717Z,98679.27
2017-12-24T18:55:09.039Z,98672.49
2017-12-24T18:57:37.709Z,98665.32
2017-12-24T19:00:06.838Z,98665.25
2017-12-24T19:02:35.192Z,98669.70
2017-12-24T19:05:03.531Z,98673.65
2017-12-24T19:07:31.858Z,98670.88
2017-12-24T19:10:00.189Z,98669.95
2017-12-24T19:12:28.531Z,98667.45
2017-12-24T19:14:56.856Z,98672.18
2017-12-24T19:17:25.196Z,98668.17
2017-12-24T19:19:53.537Z,98664.80
2017-12-24T19:22:21.882Z,98664.09
2017-12-24T19:24:50.217Z,98661.48
2017-12-24T19:27:18.555Z,98661.22
2017-12-24T19:29:46.875Z,98661.71
2017-12-24T19:32:15.723Z,98661.28
2017-12-24T19:34:44.057Z,98657.41
2017-12-24T19:37:12.386Z,98651.91
2017-12-24T19:39:40.737Z,98646.76
2017-12-24T19:42:09.081Z,98648.00
2017-12-24T19:44:37.415Z,98650.91
2017-12-24T19:47:06.767Z,98649.34
2017-12-24T19:49:35.124Z,98646.72
2017-12-24T19:52:03.455Z,98640.50
2017-12-24T19:54:31.800Z,98632.04
2017-12-24T19:57:00.135Z,98637.09
2017-12-24T19:59:29.238Z,98634.83
2017-12-24T20:01:57.577Z,98633.05
2017-12-24T20:04:25.935Z,98627.44
2017-12-24T20:06:54.260Z,98622.53
2017-12-24T20:09:22.598Z,98623.64
2017-12-24T20:11:50.920Z,98626.23
2017-12-24T20:14:19.257Z,98616.50
2017-12-24T20:16:48.780Z,98620.23
2017-12-24T20:19:17.116Z,98617.56
2017-12-24T20:21:45.456Z,98611.45
2017-12-24T20:24:13.791Z,98616.14
2017-12-24T20:26:43.432Z,98610.18
2017-12-24T20:29:11.755Z,98604.22
2017-12-24T20:31:41.373Z,98610.72
2017-12-24T20:34:09.702Z,98605.06
2017-12-24T20:36:38.038Z,98606.37
2017-12-24T20:39:06.373Z,98606.06
2017-12-24T20:41:34.721Z,98602.62
2017-12-24T20:44:03.057Z,98600.48
2017-12-24T20:46:31.387Z,98587.60
2017-12-24T20:48:59.725Z,98592.09
2017-12-24T20:51:28.086Z,98592.28
2017-12-24T20:53:56.447Z,98591.01
2017-12-24T20:56:24.792Z,98586.36
2017-12-24T20:58:53.132Z,98581.25
2017-12-24T21:01:21.460Z,98580.00
2017-12-24T21:03:50.563Z,98587.74
2017-12-24T21:06:18.901Z,98581.81
2017-12-24T21:08:47.254Z,98583.13
2017-12-24T21:11:15.580Z,98579.05
2017-12-24T21:13:44.674Z,98577.34
2017-12-24T21:16:13.003Z,98578.63
2017-12-24T21:18:41.345Z,98578.30
2017-12-24T21:21:10.427Z,98582.03
2017-12-24T21:23:38.768Z,98584.23
2017-12-24T21:26:07.089Z,98583.27
2017-12-24T21:28:36.188Z,98580.79
2017-12-24T21:31:04.562Z,98574.44
2017-12-24T21:33:32.905Z,98576.98
2017-12-24T21:36:01.222Z,98576.10
2017-12-24T21:38:30.331Z,98576.14
2017-12-24T21:40:58.638Z,98577.80
2017-12-24T21:43:26.973Z,98581.21
2017-12-24T21:45:56.066Z,98582.84
2017-12-24T21:48:24.398Z,98583.37
2017-12-24T21:50:52.740Z,98585.16
2017-12-24T21:53:21.085Z,98583.27
2017-12-24T21:55:50.192Z,98575.67
2017-12-24T21:58:18.542Z,98575.31
2017-12-24T22:00:46.871Z,98574.47
2017-12-24T22:03:15.202Z,98573.22
2017-12-24T22:05:43.536Z,98569.39
2017-12-24T22:08:11.855Z,98573.58
2017-12-24T22:10:40.187Z,98571.52
2017-12-24T22:13:08.551Z,98568.01
2017-12-24T22:15:37.625Z,98569.70
2017-12-24T22:18:06.733Z,98564.10
2017-12-24T22:20:35.074Z,98567.44
2017-12-24T22:23:03.404Z,98559.62
2017-12-24T22:25:31.733Z,98564.38
2017-12-24T22:28:00.477Z,98566.16
2017-12-24T22:30:28.795Z,98565.30
2017-12-24T22:32:57.118Z,98567.94
2017-12-24T22:35:25.425Z,98567.12
2017-12-24T22:37:53.749Z,98566.34
2017-12-24T22:40:22.830Z,98564.28
2017-12-24T22:42:51.160Z,98562.54
2017-12-24T22:45:19.493Z,98565.12
2017-12-24T22:47:48.601Z,98555.83
2017-12-24T22:50:17.706Z,98560.80
2017-12-24T22:52:46.066Z,98555.20
2017-12-24T22:55:14.377Z,98558.07
2017-12-24T22:57:42.724Z,98559.73
2017-12-24T23:00:11.046Z,98561.86
2017-12-24T23:02:39.372Z,98560.63
2017-12-24T23:05:09.154Z,98561.97
2017-12-24T23:07:37.478Z,98561.20
2017-12-24T23:10:05.805Z,98560.66
2017-12-24T23:12:34.131Z,98561.97
2017-12-24T23:15:03.228Z,98566.63
2017-12-24T23:17:32.323Z,98564.72
2017-12-24T23:20:00.624Z,98557.60
2017-12-24T23:22:29.000Z,98560.97
2017-12-24T23:24:57.324Z,98562.39
2017-12-24T23:27:25.643Z,98563.64
2017-12-24T23:29:53.957Z,98562.44
2017-12-24T23:32:22.324Z,98558.21
2017-12-24T23:34:50.657Z,98558.06
2017-12-24T23:37:19.004Z,98559.66
2017-12-24T23:39:47.373Z,98555.91
2017-12-24T23:42:15.708Z,98554.55
2017-12-24T23:44:44.027Z,98555.75
2017-12-24T23:47:12.356Z,98551.92
2017-12-24T23:49:40.673Z,98548.34
2017-12-24T23:52:08.997Z,98555.55
2017-12-24T23:54:38.084Z,98557.24
2017-12-24T23:57:07.175Z,98553.42
2017-12-24T23:59:35.499Z,98559.84
